Time;durP1;ratioP1;P1;durP2;ratioP2;P2;SDS_P1;SDS_P2;PMS_P1;PMS_P2;Temp;Humidity;BMP_temperature;BMP_pressure;BME280_temperature;BME280_humidity;BME280_pressure;Samples;Min_cycle;Max_cycle;Signal;HPM_P1;HPM_P2
2024/04/09 00:00:34;;;;;;;;;;;;;;;;;;6825005;26;19931;-60
2024/04/09 00:03:41;;;;;;;;;;;;;;;;;;6825811;26;19924;-59
2024/04/09 00:06:46;;;;;;;;;;;;;;;;;;6824649;26;19987;-59
2024/04/09 00:09:51;;;;;;;;;;;;;;;;;;6829798;25;19935;-61
2024/04/09 00:12:58;;;;;;;;;;;;;;;;;;6871278;26;19949;-61
2024/04/09 00:16:00;;;;;;;;;;;;;;;;;;6870535;26;19923;-60
2024/04/09 00:19:09;;;;;;;;;;;;;;;;;;6871555;26;19923;-59
2024/04/09 00:22:12;;;;;;;;;;;;;;;;;;6870500;26;19924;-59
2024/04/09 00:25:18;;;;;;;;;;;;;;;;;;6849157;26;19947;-60
2024/04/09 00:28:21;;;;;;;;;;;;;;;;;;6870536;26;19931;-59
2024/04/09 00:31:27;;;;;;;;;;;;;;;;;;6871149;26;19934;-60
2024/04/09 00:34:35;;;;;;;;;;;;;;;;;;6871213;26;20432;-59
2024/04/09 00:37:41;;;;;;;;;;;;;;;;;;6871349;26;19924;-59
2024/04/09 00:40:47;;;;;;;;;;;;;;;;;;6870326;26;19930;-62
2024/04/09 00:43:49;;;;;;;;;;;;;;;;;;6870892;26;19923;-60
2024/04/09 00:46:56;;;;;;;;;;;;;;;;;;6869986;26;19923;-61
2024/04/09 00:50:04;;;;;;;;;;;;;;;;;;6870661;26;20174;-61
2024/04/09 00:53:10;;;;;;;;;;;;;;;;;;6870487;26;19928;-61
2024/04/09 00:56:16;;;;;;;;;;;;;;;;;;6870553;26;19957;-61
2024/04/09 00:59:21;;;;;;;;;;;;;;;;;;6869761;26;20029;-59
2024/04/09 01:02:27;;;;;;;;;;;;;;;;;;6828354;26;19931;-59
2024/04/09 01:05:32;;;;;;;;;;;;;;;;;;6870164;26;19923;-59
2024/04/09 01:08:37;;;;;;;;;;;;;;;;;;6867661;26;19946;-60
2024/04/09 01:11:40;;;;;;;;;;;;;;;;;;6837011;26;19924;-61
2024/04/09 01:14:47;;;;;;;;;;;;;;;;;;6824259;25;19999;-59
2024/04/09 01:17:49;;;;;;;;;;;;;;;;;;6824103;26;19928;-60
2024/04/09 01:20:59;;;;;;;;;;;;;;;;;;6823890;26;20135;-60
2024/04/09 01:24:05;;;;;;;;;;;;;;;;;;6823885;25;19924;-59
2024/04/09 01:27:14;;;;;;;;;;;;;;;;;;6853182;26;20046;-60
2024/04/09 01:30:18;;;;;;;;;;;;;;;;;;6868664;26;19935;-59
2024/04/09 01:33:24;;;;;;;;;;;;;;;;;;6871511;26;19923;-59
2024/04/09 01:36:28;;;;;;;;;;;;;;;;;;6874138;26;19985;-61
2024/04/09 01:39:37;;;;;;;;;;;;;;;;;;6874116;26;19996;-61
2024/04/09 01:42:39;;;;;;;;;;;;;;;;;;6874838;26;19947;-60
2024/04/09 01:45:44;;;;;;;;;;;;;;;;;;6873841;26;19954;-60
2024/04/09 01:48:47;;;;;;;;;;;;;;;;;;6840977;26;20060;-61
2024/04/09 01:51:54;;;;;;;;;;;;;;;;;;6874388;26;19927;-60
2024/04/09 01:54:59;;;;;;;;;;;;;;;;;;6873689;25;19924;-60
2024/04/09 01:58:04;;;;;;;;;;;;;;;;;;6873974;26;20195;-61
2024/04/09 02:01:09;;;;;;;;;;;;;;;;;;6873262;26;19934;-60
2024/04/09 02:04:15;;;;;;;;;;;;;;;;;;6872717;26;20046;-60
2024/04/09 02:07:18;;;;;;;;;;;;;;;;;;6873642;26;19928;-61
2024/04/09 02:10:27;;;;;;;;;;;;;;;;;;6860426;26;20093;-61
2024/04/09 02:13:30;;;;;;;;;;;;;;;;;;6826909;26;19931;-60
2024/04/09 02:16:35;;;;;;;;;;;;;;;;;;6827791;25;19931;-60
2024/04/09 02:19:38;;;;;;;;;;;;;;;;;;6827442;26;20126;-59
2024/04/09 02:22:43;;;;;;;;;;;;;;;;;;6827924;25;19924;-59
2024/04/09 02:25:49;;;;;;;;;;;;;;;;;;6835123;26;20003;-60
2024/04/09 02:28:54;;;;;;;;;;;;;;;;;;6873677;26;19923;-60
2024/04/09 02:31:56;;;;;;;;;;;;;;;;;;6846873;26;19924;-59
2024/04/09 02:35:04;;;;;;;;;;;;;;;;;;6856584;26;19931;-60
2024/04/09 02:38:07;;;;;;;;;;;;;;;;;;6873126;26;19923;-60
2024/04/09 02:41:16;;;;;;;;;;;;;;;;;;6873157;26;20347;-60
2024/04/09 02:44:19;;;;;;;;;;;;;;;;;;6871454;26;20109;-60
2024/04/09 02:47:25;;;;;;;;;;;;;;;;;;6872953;26;19924;-60
2024/04/09 02:50:28;;;;;;;;;;;;;;;;;;6873120;26;19928;-60
2024/04/09 02:53:33;;;;;;;;;;;;;;;;;;6837064;26;20128;-60
2024/04/09 02:56:38;;;;;;;;;;;;;;;;;;6871343;26;19923;-60
2024/04/09 02:59:44;;;;;;;;;;;;;;;;;;6840360;26;19927;-60
2024/04/09 03:02:50;;;;;;;;;;;;;;;;;;6843037;26;19931;-60
2024/04/09 03:05:55;;;;;;;;;;;;;;;;;;6839566;26;20083;-60
2024/04/09 03:08:58;;;;;;;;;;;;;;;;;;6872162;26;20315;-60
2024/04/09 03:12:07;;;;;;;;;;;;;;;;;;6835995;26;19924;-60
2024/04/09 03:15:09;;;;;;;;;;;;;;;;;;6826920;25;19924;-61
2024/04/09 03:18:15;;;;;;;;;;;;;;;;;;6828244;26;20020;-60
2024/04/09 03:21:20;;;;;;;;;;;;;;;;;;6873500;26;19924;-60
2024/04/09 03:24:26;;;;;;;;;;;;;;;;;;6872699;26;19923;-60
2024/04/09 03:27:31;;;;;;;;;;;;;;;;;;6837140;26;20129;-60
2024/04/09 03:30:37;;;;;;;;;;;;;;;;;;6825831;25;20008;-59
2024/04/09 03:33:39;;;;;;;;;;;;;;;;;;6826294;26;20031;-59
2024/04/09 03:36:45;;;;;;;;;;;;;;;;;;6850120;26;20101;-60
2024/04/09 03:39:50;;;;;;;;;;;;;;;;;;6871885;26;20140;-60
2024/04/09 03:43:00;;;;;;;;;;;;;;;;;;6872137;26;20279;-60
2024/04/09 03:46:04;;;;;;;;;;;;;;;;;;6872079;26;19930;-60
2024/04/09 03:49:09;;;;;;;;;;;;;;;;;;6871458;26;19927;-60
2024/04/09 03:52:12;;;;;;;;;;;;;;;;;;6872025;26;20019;-60
2024/04/09 03:55:18;;;;;;;;;;;;;;;;;;6871087;25;19924;-60
2024/04/09 03:58:23;;;;;;;;;;;;;;;;;;6871329;26;19927;-61
2024/04/09 04:01:28;;;;;;;;;;;;;;;;;;6871569;26;20109;-60
2024/04/09 04:04:31;;;;;;;;;;;;;;;;;;6871638;26;20528;-60
2024/04/09 04:07:37;;;;;;;;;;;;;;;;;;6871623;26;19923;-60
2024/04/09 04:10:42;;;;;;;;;;;;;;;;;;6850420;25;20558;-60
2024/04/09 04:13:47;;;;;;;;;;;;;;;;;;6825558;26;19923;-60
2024/04/09 04:16:52;;;;;;;;;;;;;;;;;;6826198;25;19923;-61
2024/04/09 04:19:55;;;;;;;;;;;;;;;;;;6824981;26;20109;-60
2024/04/09 04:23:00;;;;;;;;;;;;;;;;;;6825199;26;20071;-60
2024/04/09 04:26:06;;;;;;;;;;;;;;;;;;6838341;26;20113;-60
2024/04/09 04:29:15;;;;;;;;;;;;;;;;;;6870663;26;19924;-60
2024/04/09 04:32:18;;;;;;;;;;;;;;;;;;6870971;26;20007;-60
2024/04/09 04:35:24;;;;;;;;;;;;;;;;;;6838067;26;19930;-60
2024/04/09 04:38:27;;;;;;;;;;;;;;;;;;6870912;26;19923;-60
2024/04/09 04:41:32;;;;;;;;;;;;;;;;;;6871485;26;20113;-59
2024/04/09 04:44:40;;;;;;;;;;;;;;;;;;6871023;26;20258;-60
2024/04/09 04:47:42;;;;;;;;;;;;;;;;;;6871724;26;19923;-60
2024/04/09 04:50:48;;;;;;;;;;;;;;;;;;6870827;26;19949;-59
2024/04/09 04:53:51;;;;;;;;;;;;;;;;;;6870879;25;19923;-61
2024/04/09 04:56:57;;;;;;;;;;;;;;;;;;6787810;26;20132;-60
2024/04/09 05:00:09;;;;;;;;;;;;;;;;;;6871283;26;19938;-60
2024/04/09 05:03:14;;;;;;;;;;;;;;;;;;6870738;26;19923;-61
2024/04/09 05:06:17;;;;;;;;;;;;;;;;;;6870118;26;19995;-61
2024/04/09 05:09:22;;;;;;;;;;;;;;;;;;6869811;26;19970;-60
2024/04/09 05:12:28;;;;;;;;;;;;;;;;;;6824975;26;20253;-60
2024/04/09 05:15:33;;;;;;;;;;;;;;;;;;6823473;25;20128;-61
2024/04/09 05:18:38;;;;;;;;;;;;;;;;;;6824370;26;20280;-62
2024/04/09 05:21:41;;;;;;;;;;;;;;;;;;6825906;25;19931;-61
2024/04/09 05:24:47;;;;;;;;;;;;;;;;;;6823833;25;19935;-60
2024/04/09 05:27:51;;;;;;;;;;;;;;;;;;6864312;26;19947;-61
2024/04/09 05:30:59;;;;;;;;;;;;;;;;;;6870769;26;19931;-62
2024/04/09 05:34:03;;;;;;;;;;;;;;;;;;6870492;26;19927;-59
2024/04/09 05:37:09;;;;;;;;;;;;;;;;;;6870428;26;19934;-59
2024/04/09 05:40:15;;;;;;;;;;;;;;;;;;6870116;26;20135;-59
2024/04/09 05:43:20;;;;;;;;;;;;;;;;;;6869205;26;19937;-61
2024/04/09 05:46:25;;;;;;;;;;;;;;;;;;6870987;26;19924;-62
2024/04/09 05:49:30;;;;;;;;;;;;;;;;;;6869814;26;20476;-60
2024/04/09 05:52:35;;;;;;;;;;;;;;;;;;6870734;26;19961;-60
2024/04/09 05:55:40;;;;;;;;;;;;;;;;;;6825553;26;19923;-59
2024/04/09 05:58:43;;;;;;;;;;;;;;;;;;6870688;26;20025;-61
2024/04/09 06:01:51;;;;;;;;;;;;;;;;;;6871039;26;19934;-59
2024/04/09 06:04:54;;;;;;;;;;;;;;;;;;6870007;26;20025;-59
2024/04/09 06:07:59;;;;;;;;;;;;;;;;;;6869578;26;20018;-60
2024/04/09 06:11:03;;;;;;;;;;;;;;;;;;6843394;26;19986;-60
2024/04/09 06:14:08;;;;;;;;;;;;;;;;;;6823450;26;19924;-60
2024/04/09 06:17:14;;;;;;;;;;;;;;;;;;6824052;26;20365;-60
2024/04/09 06:20:19;;;;;;;;;;;;;;;;;;6817940;26;19931;-60
2024/04/09 06:23:25;;;;;;;;;;;;;;;;;;6845375;26;19923;-62
2024/04/09 06:26:27;;;;;;;;;;;;;;;;;;6848829;26;19930;-61
2024/04/09 06:29:33;;;;;;;;;;;;;;;;;;6874431;26;19923;-61
2024/04/09 06:32:41;;;;;;;;;;;;;;;;;;6872882;26;19923;-60
2024/04/09 06:35:44;;;;;;;;;;;;;;;;;;6873889;26;20107;-60
2024/04/09 06:38:49;;;;;;;;;;;;;;;;;;6873771;26;19927;-60
2024/04/09 06:41:52;;;;;;;;;;;;;;;;;;6874036;26;19930;-60
2024/04/09 06:44:57;;;;;;;;;;;;;;;;;;6874044;26;19988;-60
2024/04/09 06:48:06;;;;;;;;;;;;;;;;;;6873340;26;20046;-61
2024/04/09 06:51:09;;;;;;;;;;;;;;;;;;6874007;26;19923;-60
2024/04/09 06:54:14;;;;;;;;;;;;;;;;;;6872936;25;19923;-61
2024/04/09 06:57:17;;;;;;;;;;;;;;;;;;6873436;26;19933;-61
2024/04/09 07:00:23;;;;;;;;;;;;;;;;;;6872741;26;20255;-59
2024/04/09 07:03:28;;;;;;;;;;;;;;;;;;6872227;26;19924;-62
2024/04/09 07:06:34;;;;;;;;;;;;;;;;;;6873319;26;19923;-61
2024/04/09 07:09:37;;;;;;;;;;;;;;;;;;6864980;25;19930;-60
2024/04/09 07:12:42;;;;;;;;;;;;;;;;;;6795340;26;19928;-60
2024/04/09 07:15:45;;;;;;;;;;;;;;;;;;6826042;25;19932;-60
2024/04/09 07:18:53;;;;;;;;;;;;;;;;;;6826643;26;19956;-59
2024/04/09 07:21:56;;;;;;;;;;;;;;;;;;6827442;25;19946;-60
2024/04/09 07:25:01;;;;;;;;;;;;;;;;;;6826645;26;19931;-59
2024/04/09 07:28:04;;;;;;;;;;;;;;;;;;6870019;26;20126;-59
2024/04/09 07:31:10;;;;;;;;;;;;;;;;;;6872846;26;19935;-59
2024/04/09 07:34:16;;;;;;;;;;;;;;;;;;6872837;26;19923;-59
2024/04/09 07:37:21;;;;;;;;;;;;;;;;;;6831833;26;19924;-59
2024/04/09 07:40:24;;;;;;;;;;;;;;;;;;6872354;26;19930;-59
2024/04/09 07:43:30;;;;;;;;;;;;;;;;;;6872454;26;19931;-61
2024/04/09 07:46:40;;;;;;;;;;;;;;;;;;6872950;26;19928;-59
2024/04/09 07:49:48;;;;;;;;;;;;;;;;;;6872555;26;19924;-60
2024/04/09 07:52:54;;;;;;;;;;;;;;;;;;6871532;26;19923;-60
2024/04/09 07:55:59;;;;;;;;;;;;;;;;;;6872118;25;20128;-60
2024/04/09 07:59:02;;;;;;;;;;;;;;;;;;6870706;26;19928;-60
2024/04/09 08:02:08;;;;;;;;;;;;;;;;;;6872956;26;19923;-60
2024/04/09 08:05:15;;;;;;;;;;;;;;;;;;6872091;26;19930;-59
2024/04/09 08:08:20;;;;;;;;;;;;;;;;;;6871932;26;20028;-59
2024/04/09 08:11:23;;;;;;;;;;;;;;;;;;6840421;26;19923;-60
2024/04/09 08:14:28;;;;;;;;;;;;;;;;;;6826191;26;19947;-61
2024/04/09 08:17:31;;;;;;;;;;;;;;;;;;6826437;26;20065;-61
2024/04/09 08:20:41;;;;;;;;;;;;;;;;;;6825681;25;20114;-61
2024/04/09 08:23:47;;;;;;;;;;;;;;;;;;6825508;26;19924;-59
2024/04/09 08:26:50;;;;;;;;;;;;;;;;;;6850257;26;19923;-59
2024/04/09 08:29:55;;;;;;;;;;;;;;;;;;6871003;26;19930;-61
2024/04/09 08:33:00;;;;;;;;;;;;;;;;;;6871149;26;19923;-60
2024/04/09 08:36:06;;;;;;;;;;;;;;;;;;6872312;26;20246;-60
2024/04/09 08:39:12;;;;;;;;;;;;;;;;;;6871514;26;19931;-60
2024/04/09 08:42:17;;;;;;;;;;;;;;;;;;6837695;26;20134;-60
2024/04/09 08:45:20;;;;;;;;;;;;;;;;;;6871199;26;20179;-61
2024/04/09 08:48:26;;;;;;;;;;;;;;;;;;6871453;26;19930;-61
2024/04/09 08:51:32;;;;;;;;;;;;;;;;;;6871155;26;19923;-61
2024/04/09 08:54:37;;;;;;;;;;;;;;;;;;6870573;26;19924;-61
2024/04/09 08:57:43;;;;;;;;;;;;;;;;;;6872101;26;19931;-60
2024/04/09 09:00:46;;;;;;;;;;;;;;;;;;6871493;26;19924;-59
2024/04/09 09:03:52;;;;;;;;;;;;;;;;;;6871202;26;19924;-60
2024/04/09 09:06:58;;;;;;;;;;;;;;;;;;6870736;26;20348;-60
2024/04/09 09:10:04;;;;;;;;;;;;;;;;;;6859757;26;20103;-60
2024/04/09 09:13:06;;;;;;;;;;;;;;;;;;6824700;25;19924;-59
2024/04/09 09:16:12;;;;;;;;;;;;;;;;;;6825100;26;20116;-60
2024/04/09 09:19:16;;;;;;;;;;;;;;;;;;6824827;25;20000;-60
2024/04/09 09:22:24;;;;;;;;;;;;;;;;;;6825259;26;19931;-61
2024/04/09 09:25:27;;;;;;;;;;;;;;;;;;6827042;26;19931;-61
2024/04/09 09:28:32;;;;;;;;;;;;;;;;;;6870178;26;19923;-61
2024/04/09 09:31:38;;;;;;;;;;;;;;;;;;6869595;26;20258;-60
2024/04/09 09:34:44;;;;;;;;;;;;;;;;;;6870281;26;20022;-61
2024/04/09 09:37:52;;;;;;;;;;;;;;;;;;6870753;26;19924;-61
2024/04/09 09:40:54;;;;;;;;;;;;;;;;;;6870893;26;20010;-61
2024/04/09 09:44:00;;;;;;;;;;;;;;;;;;6869118;26;19954;-61
2024/04/09 09:47:05;;;;;;;;;;;;;;;;;;6870514;26;19931;-60
2024/04/09 09:50:11;;;;;;;;;;;;;;;;;;6869963;26;19930;-60
2024/04/09 09:53:26;;;;;;;;;;;;;;;;;;6870807;26;20096;-60
2024/04/09 09:56:29;;;;;;;;;;;;;;;;;;6875510;26;19923;-61
2024/04/09 09:59:36;;;;;;;;;;;;;;;;;;6875057;26;19930;-60
2024/04/09 10:02:41;;;;;;;;;;;;;;;;;;6874755;26;19930;-61
2024/04/09 10:05:55;;;;;;;;;;;;;;;;;;6841614;26;19930;-62
2024/04/09 10:09:07;;;;;;;;;;;;;;;;;;6874106;26;19928;-60
2024/04/09 10:12:20;;;;;;;;;;;;;;;;;;6830397;26;19931;-60
2024/04/09 10:15:27;;;;;;;;;;;;;;;;;;6827629;25;19999;-60
2024/04/09 10:18:31;;;;;;;;;;;;;;;;;;6827377;25;19935;-62
2024/04/09 10:21:37;;;;;;;;;;;;;;;;;;6827778;25;19931;-60
2024/04/09 10:24:42;;;;;;;;;;;;;;;;;;6827710;25;19924;-60
2024/04/09 10:27:48;;;;;;;;;;;;;;;;;;6867095;26;20110;-61
2024/04/09 10:30:51;;;;;;;;;;;;;;;;;;6872773;26;19923;-60
2024/04/09 10:33:59;;;;;;;;;;;;;;;;;;6872990;26;20011;-59
2024/04/09 10:37:03;;;;;;;;;;;;;;;;;;6873314;26;20329;-60
2024/04/09 10:40:12;;;;;;;;;;;;;;;;;;6873410;26;19931;-58
2024/04/09 10:43:17;;;;;;;;;;;;;;;;;;6872878;26;19927;-60
2024/04/09 10:46:20;;;;;;;;;;;;;;;;;;6873156;26;19924;-59
2024/04/09 10:49:26;;;;;;;;;;;;;;;;;;6872681;26;20084;-61
2024/04/09 10:52:28;;;;;;;;;;;;;;;;;;6874075;26;19923;-61
2024/04/09 10:55:36;;;;;;;;;;;;;;;;;;6873480;25;19987;-61
2024/04/09 10:58:40;;;;;;;;;;;;;;;;;;6873881;26;20010;-61
2024/04/09 11:01:46;;;;;;;;;;;;;;;;;;6874017;26;19924;-62
2024/04/09 11:04:48;;;;;;;;;;;;;;;;;;6872346;26;19923;-59
2024/04/09 11:07:54;;;;;;;;;;;;;;;;;;6829967;26;20204;-59
2024/04/09 11:11:00;;;;;;;;;;;;;;;;;;6848846;26;19931;-60
2024/04/09 11:14:07;;;;;;;;;;;;;;;;;;6826815;25;20045;-60
2024/04/09 11:17:15;;;;;;;;;;;;;;;;;;6827486;26;20016;-59
2024/04/09 11:20:21;;;;;;;;;;;;;;;;;;6826618;26;19924;-60
2024/04/09 11:23:23;;;;;;;;;;;;;;;;;;6826519;26;19924;-60
2024/04/09 11:26:31;;;;;;;;;;;;;;;;;;6846000;26;19923;-59
2024/04/09 11:29:35;;;;;;;;;;;;;;;;;;6872634;26;19989;-61
2024/04/09 11:32:41;;;;;;;;;;;;;;;;;;6873468;26;20128;-59
2024/04/09 11:35:47;;;;;;;;;;;;;;;;;;6872696;26;19923;-60
2024/04/09 11:38:50;;;;;;;;;;;;;;;;;;6846391;26;20034;-59
2024/04/09 11:41:58;;;;;;;;;;;;;;;;;;6857725;26;19924;-59
2024/04/09 11:45:04;;;;;;;;;;;;;;;;;;6872751;26;19931;-59
2024/04/09 11:48:10;;;;;;;;;;;;;;;;;;6872611;26;19923;-61
2024/04/09 11:51:16;;;;;;;;;;;;;;;;;;6872559;26;19923;-59
2024/04/09 11:54:19;;;;;;;;;;;;;;;;;;6872717;25;19930;-59
2024/04/09 11:57:27;;;;;;;;;;;;;;;;;;6840405;26;19923;-59
2024/04/09 12:00:29;;;;;;;;;;;;;;;;;;6870887;26;19930;-60
2024/04/09 12:03:35;;;;;;;;;;;;;;;;;;6872142;26;19954;-59
2024/04/09 12:06:39;;;;;;;;;;;;;;;;;;6872970;26;20945;-59
2024/04/09 12:09:45;;;;;;;;;;;;;;;;;;6832615;26;20126;-59
2024/04/09 12:12:51;;;;;;;;;;;;;;;;;;6823937;25;19940;-59
2024/04/09 12:15:57;;;;;;;;;;;;;;;;;;6825798;26;19924;-59
2024/04/09 12:19:00;;;;;;;;;;;;;;;;;;6823891;25;19931;-59
2024/04/09 12:22:06;;;;;;;;;;;;;;;;;;6825297;26;19927;-59
2024/04/09 12:25:09;;;;;;;;;;;;;;;;;;6817440;26;19927;-60
2024/04/09 12:28:17;;;;;;;;;;;;;;;;;;6826299;26;19944;-59
2024/04/09 12:31:19;;;;;;;;;;;;;;;;;;6826235;26;19924;-60
2024/04/09 12:34:24;;;;;;;;;;;;;;;;;;6824578;26;19924;-59
2024/04/09 12:37:27;;;;;;;;;;;;;;;;;;6825950;26;20121;-60
2024/04/09 12:40:33;;;;;;;;;;;;;;;;;;6824782;26;20450;-59
2024/04/09 12:43:38;;;;;;;;;;;;;;;;;;6824575;26;19926;-59
2024/04/09 12:46:43;;;;;;;;;;;;;;;;;;6825587;26;19931;-59
2024/04/09 12:49:46;;;;;;;;;;;;;;;;;;6822426;26;19924;-59
2024/04/09 12:52:51;;;;;;;;;;;;;;;;;;6825514;26;19952;-59
2024/04/09 12:55:53;;;;;;;;;;;;;;;;;;6798164;26;19932;-59
2024/04/09 12:59:01;;;;;;;;;;;;;;;;;;6809968;26;19924;-59
2024/04/09 13:02:10;;;;;;;;;;;;;;;;;;6818777;26;19931;-60
2024/04/09 13:05:15;;;;;;;;;;;;;;;;;;6825548;26;19924;-59
2024/04/09 13:08:21;;;;;;;;;;;;;;;;;;6825538;26;19931;-59
2024/04/09 13:11:24;;;;;;;;;;;;;;;;;;6808777;26;19931;-59
2024/04/09 13:14:32;;;;;;;;;;;;;;;;;;6824227;26;20225;-59
2024/04/09 13:17:35;;;;;;;;;;;;;;;;;;6824191;26;20113;-60
2024/04/09 13:20:40;;;;;;;;;;;;;;;;;;6822226;26;20108;-60
2024/04/09 13:23:43;;;;;;;;;;;;;;;;;;6822892;26;20010;-59
2024/04/09 13:26:48;;;;;;;;;;;;;;;;;;6824397;26;19924;-59
2024/04/09 13:29:54;;;;;;;;;;;;;;;;;;6842964;26;19930;-59
2024/04/09 13:32:59;;;;;;;;;;;;;;;;;;6873124;26;19952;-60
2024/04/09 13:36:02;;;;;;;;;;;;;;;;;;6875748;26;20717;-59
2024/04/09 13:39:08;;;;;;;;;;;;;;;;;;6874656;26;19935;-59
2024/04/09 13:42:10;;;;;;;;;;;;;;;;;;6875042;26;19930;-59
2024/04/09 13:45:18;;;;;;;;;;;;;;;;;;6874471;26;19923;-59
2024/04/09 13:48:21;;;;;;;;;;;;;;;;;;6874543;26;19923;-59
2024/04/09 13:51:27;;;;;;;;;;;;;;;;;;6874728;26;20032;-59
2024/04/09 13:54:29;;;;;;;;;;;;;;;;;;6855007;26;19924;-60
2024/04/09 13:57:35;;;;;;;;;;;;;;;;;;6842915;26;19924;-59
2024/04/09 14:00:40;;;;;;;;;;;;;;;;;;6872098;26;19923;-59
2024/04/09 14:03:45;;;;;;;;;;;;;;;;;;6829100;26;19924;-59
2024/04/09 14:06:48;;;;;;;;;;;;;;;;;;6875271;25;19935;-59
2024/04/09 14:09:53;;;;;;;;;;;;;;;;;;6882599;25;20250;-59
2024/04/09 14:12:59;;;;;;;;;;;;;;;;;;6921074;25;19922;-61
2024/04/09 14:16:05;;;;;;;;;;;;;;;;;;6921568;25;19930;-59
2024/04/09 14:19:12;;;;;;;;;;;;;;;;;;6921104;25;19927;-59
2024/04/09 14:22:33;;;;;;;;;;;;;;;;;;6911716;25;19930;-59
2024/04/09 14:25:39;;;;;;;;;;;;;;;;;;6913038;25;19931;-59
2024/04/09 14:28:42;;;;;;;;;;;;;;;;;;6863889;25;19979;-60
2024/04/09 14:31:50;;;;;;;;;;;;;;;;;;6873878;26;19935;-60
2024/04/09 14:34:56;;;;;;;;;;;;;;;;;;6873948;25;19931;-60
2024/04/09 14:37:58;;;;;;;;;;;;;;;;;;6873970;25;20600;-60
2024/04/09 14:41:03;;;;;;;;;;;;;;;;;;6873693;26;19924;-59
2024/04/09 14:44:10;;;;;;;;;;;;;;;;;;6861663;26;19963;-60
2024/04/09 14:47:18;;;;;;;;;;;;;;;;;;6873966;26;20120;-60
2024/04/09 14:50:21;;;;;;;;;;;;;;;;;;6873459;26;20269;-60
2024/04/09 14:53:27;;;;;;;;;;;;;;;;;;6873156;26;19999;-60
2024/04/09 14:56:30;;;;;;;;;;;;;;;;;;6871769;26;20113;-60
2024/04/09 14:59:36;;;;;;;;;;;;;;;;;;6873389;26;19931;-60
2024/04/09 15:02:42;;;;;;;;;;;;;;;;;;6862469;26;20007;-60
2024/04/09 15:05:53;;;;;;;;;;;;;;;;;;6872882;26;19927;-60
2024/04/09 15:08:56;;;;;;;;;;;;;;;;;;6872846;26;19927;-60
2024/04/09 15:12:02;;;;;;;;;;;;;;;;;;6914425;25;19923;-60
2024/04/09 15:15:05;;;;;;;;;;;;;;;;;;6919236;25;19933;-60
2024/04/09 15:18:13;;;;;;;;;;;;;;;;;;6919703;25;20135;-59
2024/04/09 15:21:16;;;;;;;;;;;;;;;;;;6876796;25;20101;-60
2024/04/09 15:24:22;;;;;;;;;;;;;;;;;;6918363;25;19930;-61
2024/04/09 15:27:25;;;;;;;;;;;;;;;;;;6884976;25;19930;-60
2024/04/09 15:30:30;;;;;;;;;;;;;;;;;;6860726;25;19923;-61
2024/04/09 15:33:36;;;;;;;;;;;;;;;;;;6861564;25;20019;-59
2024/04/09 15:36:41;;;;;;;;;;;;;;;;;;6863303;26;20116;-60
2024/04/09 15:39:44;;;;;;;;;;;;;;;;;;6825561;26;19923;-59
2024/04/09 15:42:51;;;;;;;;;;;;;;;;;;6841507;26;19924;-59
2024/04/09 15:45:53;;;;;;;;;;;;;;;;;;6871857;26;20060;-60
2024/04/09 15:49:01;;;;;;;;;;;;;;;;;;6872557;25;19924;-60
2024/04/09 15:52:04;;;;;;;;;;;;;;;;;;6872811;25;20193;-61
2024/04/09 15:55:09;;;;;;;;;;;;;;;;;;6870950;26;19923;-61
2024/04/09 15:58:16;;;;;;;;;;;;;;;;;;6871384;25;19923;-60
2024/04/09 16:01:21;;;;;;;;;;;;;;;;;;6866436;26;19923;-61
2024/04/09 16:04:27;;;;;;;;;;;;;;;;;;6872196;26;19923;-60
2024/04/09 16:07:32;;;;;;;;;;;;;;;;;;6873195;25;20121;-61
2024/04/09 16:10:38;;;;;;;;;;;;;;;;;;6865998;25;19977;-61
2024/04/09 16:13:41;;;;;;;;;;;;;;;;;;6903170;25;19926;-60
2024/04/09 16:16:50;;;;;;;;;;;;;;;;;;6915440;25;19923;-61
2024/04/09 16:19:55;;;;;;;;;;;;;;;;;;6916981;25;19922;-61
2024/04/09 16:23:01;;;;;;;;;;;;;;;;;;6918511;25;19923;-60
2024/04/09 16:26:05;;;;;;;;;;;;;;;;;;6905454;25;19923;-61
2024/04/09 16:29:10;;;;;;;;;;;;;;;;;;6871871;26;19924;-62
2024/04/09 16:32:13;;;;;;;;;;;;;;;;;;6873009;26;19930;-61
2024/04/09 16:35:22;;;;;;;;;;;;;;;;;;6839388;26;19928;-61
2024/04/09 16:38:26;;;;;;;;;;;;;;;;;;6871676;26;19923;-61
2024/04/09 16:41:36;;;;;;;;;;;;;;;;;;6839742;26;19927;-61
2024/04/09 16:44:38;;;;;;;;;;;;;;;;;;6839333;26;19931;-61
2024/04/09 16:47:44;;;;;;;;;;;;;;;;;;6804126;26;20094;-61
2024/04/09 16:50:52;;;;;;;;;;;;;;;;;;6873531;25;20120;-59
2024/04/09 16:53:58;;;;;;;;;;;;;;;;;;6827666;25;20017;-59
2024/04/09 16:57:03;;;;;;;;;;;;;;;;;;6874340;26;19931;-61
2024/04/09 17:00:08;;;;;;;;;;;;;;;;;;6874113;26;19923;-62
2024/04/09 17:03:14;;;;;;;;;;;;;;;;;;6874291;26;19931;-61
2024/04/09 17:06:22;;;;;;;;;;;;;;;;;;6874647;26;19927;-60
2024/04/09 17:09:28;;;;;;;;;;;;;;;;;;6875632;25;19924;-63
2024/04/09 17:12:33;;;;;;;;;;;;;;;;;;6919473;25;19927;-62
2024/04/09 17:15:36;;;;;;;;;;;;;;;;;;6847579;26;19924;-63
2024/04/09 17:18:42;;;;;;;;;;;;;;;;;;6840606;26;20006;-62
2024/04/09 17:21:50;;;;;;;;;;;;;;;;;;6873851;26;19930;-59
2024/04/09 17:24:53;;;;;;;;;;;;;;;;;;6838025;26;19924;-61
2024/04/09 17:28:01;;;;;;;;;;;;;;;;;;6793950;26;19924;-60
2024/04/09 17:31:06;;;;;;;;;;;;;;;;;;6826860;26;20021;-61
2024/04/09 17:34:11;;;;;;;;;;;;;;;;;;6844104;26;19928;-64
2024/04/09 17:37:17;;;;;;;;;;;;;;;;;;6853188;26;19927;-60
2024/04/09 17:40:22;;;;;;;;;;;;;;;;;;6871063;26;20024;-60
2024/04/09 17:43:25;;;;;;;;;;;;;;;;;;6869729;26;19923;-61
2024/04/09 17:46:30;;;;;;;;;;;;;;;;;;6871535;26;20117;-60
2024/04/09 17:49:32;;;;;;;;;;;;;;;;;;6853718;26;19924;-60
2024/04/09 17:52:40;;;;;;;;;;;;;;;;;;6843906;26;20178;-61
2024/04/09 17:55:43;;;;;;;;;;;;;;;;;;6842404;26;20132;-61
2024/04/09 17:58:50;;;;;;;;;;;;;;;;;;6794699;26;19932;-61
2024/04/09 18:01:52;;;;;;;;;;;;;;;;;;6794154;26;20203;-62
2024/04/09 18:04:58;;;;;;;;;;;;;;;;;;6788035;26;20137;-61
2024/04/09 18:08:04;;;;;;;;;;;;;;;;;;6822950;26;19924;-61
2024/04/09 18:11:09;;;;;;;;;;;;;;;;;;6825241;26;19955;-61
2024/04/09 18:14:13;;;;;;;;;;;;;;;;;;6781963;26;19924;-63
2024/04/09 18:17:23;;;;;;;;;;;;;;;;;;6798598;26;19927;-61
2024/04/09 18:20:31;;;;;;;;;;;;;;;;;;6827868;26;20165;-61
2024/04/09 18:23:37;;;;;;;;;;;;;;;;;;6789028;26;20043;-61
2024/04/09 18:26:46;;;;;;;;;;;;;;;;;;6875042;26;20007;-61
2024/04/09 18:29:49;;;;;;;;;;;;;;;;;;6874146;26;20218;-60
2024/04/09 18:32:57;;;;;;;;;;;;;;;;;;6872571;26;19924;-60
2024/04/09 18:36:00;;;;;;;;;;;;;;;;;;6872990;26;19923;-60
2024/04/09 18:39:10;;;;;;;;;;;;;;;;;;6873697;26;20042;-60
2024/04/09 18:42:13;;;;;;;;;;;;;;;;;;6874963;26;19924;-61
2024/04/09 18:45:18;;;;;;;;;;;;;;;;;;6869312;26;19924;-60
2024/04/09 18:48:21;;;;;;;;;;;;;;;;;;6872494;26;19923;-59
2024/04/09 18:51:26;;;;;;;;;;;;;;;;;;6873879;26;19935;-61
2024/04/09 18:54:32;;;;;;;;;;;;;;;;;;6872773;26;19924;-61
2024/04/09 18:57:37;;;;;;;;;;;;;;;;;;6873502;26;20120;-60
2024/04/09 19:00:40;;;;;;;;;;;;;;;;;;6873635;26;19924;-60
2024/04/09 19:03:45;;;;;;;;;;;;;;;;;;6872987;26;19924;-61
2024/04/09 19:06:51;;;;;;;;;;;;;;;;;;6872234;26;20003;-61
2024/04/09 19:09:57;;;;;;;;;;;;;;;;;;6873378;26;19924;-61
2024/04/09 19:13:02;;;;;;;;;;;;;;;;;;6820743;26;20125;-60
2024/04/09 19:16:05;;;;;;;;;;;;;;;;;;6839752;26;19947;-60
2024/04/09 19:19:11;;;;;;;;;;;;;;;;;;6840745;26;20119;-60
2024/04/09 19:22:14;;;;;;;;;;;;;;;;;;6871896;26;19934;-59
2024/04/09 19:25:22;;;;;;;;;;;;;;;;;;6865169;26;20029;-61
2024/04/09 19:28:25;;;;;;;;;;;;;;;;;;6856125;26;19924;-61
2024/04/09 19:31:31;;;;;;;;;;;;;;;;;;6827885;26;19924;-61
2024/04/09 19:34:36;;;;;;;;;;;;;;;;;;6919761;25;19930;-61
2024/04/09 19:37:39;;;;;;;;;;;;;;;;;;6886688;25;19923;-61
2024/04/09 19:40:47;;;;;;;;;;;;;;;;;;6919746;25;20132;-61
2024/04/09 19:43:52;;;;;;;;;;;;;;;;;;6880795;25;20002;-61
2024/04/09 19:47:07;;;;;;;;;;;;;;;;;;6917770;25;19988;-61
2024/04/09 19:50:14;;;;;;;;;;;;;;;;;;6896314;25;19930;-60
2024/04/09 19:53:17;;;;;;;;;;;;;;;;;;6899805;25;20120;-60
2024/04/09 19:56:45;;;;;;;;;;;;;;;;;;6915085;25;19952;-62
2024/04/09 19:59:49;;;;;;;;;;;;;;;;;;6917915;25;19952;-60
2024/04/09 20:02:55;;;;;;;;;;;;;;;;;;6917584;25;19923;-61
2024/04/09 20:05:58;;;;;;;;;;;;;;;;;;6919676;25;19923;-60
2024/04/09 20:09:04;;;;;;;;;;;;;;;;;;6919044;25;19927;-61
2024/04/09 20:12:12;;;;;;;;;;;;;;;;;;6846428;25;20021;-60
2024/04/09 20:15:18;;;;;;;;;;;;;;;;;;6835836;26;19931;-60
2024/04/09 20:18:20;;;;;;;;;;;;;;;;;;6826571;26;20012;-61
2024/04/09 20:21:26;;;;;;;;;;;;;;;;;;6825317;26;20298;-60
2024/04/09 20:24:32;;;;;;;;;;;;;;;;;;6901048;25;19923;-61
2024/04/09 20:27:37;;;;;;;;;;;;;;;;;;6919835;25;20108;-60
2024/04/09 20:30:42;;;;;;;;;;;;;;;;;;6919296;25;19923;-60
2024/04/09 20:33:45;;;;;;;;;;;;;;;;;;6919855;25;20008;-61
2024/04/09 20:36:50;;;;;;;;;;;;;;;;;;6917512;25;20145;-61
2024/04/09 20:39:53;;;;;;;;;;;;;;;;;;6917347;25;19922;-60
2024/04/09 20:43:01;;;;;;;;;;;;;;;;;;6917387;25;20008;-61
2024/04/09 20:46:03;;;;;;;;;;;;;;;;;;6873459;25;20202;-60
2024/04/09 20:49:09;;;;;;;;;;;;;;;;;;6877028;25;19922;-60
2024/04/09 20:52:12;;;;;;;;;;;;;;;;;;6918472;25;19930;-61
2024/04/09 20:55:17;;;;;;;;;;;;;;;;;;6894535;25;19930;-61
2024/04/09 20:58:23;;;;;;;;;;;;;;;;;;6872482;26;19931;-60
2024/04/09 21:01:31;;;;;;;;;;;;;;;;;;6832155;26;24512;-60
2024/04/09 21:04:36;;;;;;;;;;;;;;;;;;6872411;26;19924;-60